VOCB/CJB METAR and TAF weather

Enter ICAO airport designator
Station Type Date Time Source
VOCB METAR 2019/10/15 21:00 UTC NOAA

VOCB 152100Z 00000KT 4000 BR SCT012 SCT080 23/22 Q1012 NOSIG


Station Type Date Time Source
VOCB Decoded METAR 2019/10/15 21:00 UTC NOAA

Coimbatore / Peelamedu, India (VOCB) 11-02N 077-03E 399M
Oct 15, 2019 - 05:00 PM EDT / 2019.10.15 2100 UTC
Wind: Calm:0
Visibility: 2 mile(s):0
Sky conditions: partly cloudy
Weather: mist
Temperature: 73 F (23 C)
Dew Point: 71 F (22 C)
Relative Humidity: 94%
Pressure (altimeter): 29.88 in. Hg (1012 hPa)
ob: VOCB 152100Z 00000KT 4000 BR SCT012 SCT080 23/22 Q1012 NOSIG
cycle: 21

Station Type Date Time Source
VOCB TAF 2019/10/15 18:00 UTC NOAA

TAF VOCB 151700Z 1518/1624 02005KT 5000 BR SCT015 BKN080 PROB40
TEMPO 1518/1524 4000 -TSRA/RA SCT012 FEW020CB BKN080
BECMG 1606/1607 6000 PROB30
TEMPO 1606/1612 SCT012 FEW020CB BKN080
BECMG 1618/1619 5000 HZ

Example: see airport list